Terminal Aerodrome Forecast
Issued by NWS

Home | Current Version | Previous Version | Text Only | Print | Product List | Glossary On
Versions: 1 2 3 4 5 6 7 8 9 10 11 12 13 14
000
FTUS41 KBTV 250500
TAFPBG
TAF
KPBG 250523Z 2506/2606 31004KT P6SM SKC
     FM251200 35006KT P6SM SCT100 BKN150
     FM251500 07007KT P6SM BKN090 BKN150
     FM260200 36006KT P6SM OVC070=

USA.gov is the U.S. government's official web portal to all federal, state and local government web resources and services.